createdAt,value
2022-10-18T00:00:15.872Z,18.60
2022-10-18T00:03:05.301Z,27.10
2022-10-18T00:05:36.272Z,23.40
2022-10-18T00:08:06.061Z,16.20
2022-10-18T00:10:37.188Z,21.50
2022-10-18T00:13:07.357Z,27.10
2022-10-18T00:15:38.366Z,26.90
2022-10-18T00:18:09.365Z,18.90
2022-10-18T00:20:42.634Z,17.40
2022-10-18T00:23:14.438Z,21.10
2022-10-18T00:25:44.806Z,21.10
2022-10-18T00:28:16.656Z,20.10
2022-10-18T00:30:47.034Z,22.30
2022-10-18T00:33:17.749Z,21.10
2022-10-18T00:38:15.661Z,20.20
2022-10-18T00:40:45.017Z,15.80
2022-10-18T00:43:19.343Z,16.50
2022-10-18T00:45:52.583Z,21.50
2022-10-18T00:48:23.069Z,19.50
2022-10-18T00:50:55.012Z,17.80
2022-10-18T00:53:24.611Z,29.50
2022-10-18T00:55:54.091Z,23.00
2022-10-18T00:58:23.705Z,20.00
2022-10-18T01:00:54.634Z,23.20
2022-10-18T01:03:24.649Z,31.40
2022-10-18T01:08:34.897Z,22.70
2022-10-18T01:11:51.715Z,26.60
2022-10-18T01:15:02.994Z,26.30
2022-10-18T01:17:41.749Z,23.50
2022-10-18T01:20:31.060Z,26.60
2022-10-18T01:23:09.464Z,21.80
2022-10-18T01:26:18.782Z,21.90
2022-10-18T01:29:06.730Z,23.40
2022-10-18T01:32:04.921Z,18.40
2022-10-18T01:34:37.737Z,21.20
2022-10-18T01:37:14.923Z,23.80
2022-10-18T01:39:47.832Z,23.90
2022-10-18T01:42:21.307Z,19.50
2022-10-18T01:44:55.739Z,18.50
2022-10-18T01:47:29.469Z,24.30
2022-10-18T01:50:06.476Z,17.00
2022-10-18T01:52:37.035Z,19.70
2022-10-18T01:55:08.871Z,17.80
2022-10-18T01:57:47.259Z,20.10
2022-10-18T02:00:37.527Z,19.80
2022-10-18T02:03:22.277Z,16.30
2022-10-18T02:06:22.148Z,21.80
2022-10-18T02:09:29.876Z,22.10
2022-10-18T02:12:04.274Z,21.50
2022-10-18T02:14:36.081Z,18.00
2022-10-18T02:17:10.377Z,16.10
2022-10-18T02:19:51.391Z,15.80
2022-10-18T02:22:26.964Z,20.70
2022-10-18T02:25:03.560Z,16.90
2022-10-18T02:27:34.379Z,17.60
2022-10-18T02:30:05.129Z,19.80
2022-10-18T02:33:01.908Z,19.10
2022-10-18T02:35:37.708Z,22.70
2022-10-18T02:38:10.727Z,13.50
2022-10-18T02:40:40.965Z,15.50
2022-10-18T02:43:11.140Z,15.40
2022-10-18T02:45:40.545Z,17.40
2022-10-18T02:48:10.994Z,13.90
2022-10-18T02:50:41.386Z,16.90
2022-10-18T02:53:11.809Z,17.90
2022-10-18T02:55:42.120Z,15.00
2022-10-18T02:58:10.777Z,15.20
2022-10-18T03:00:39.920Z,16.90
2022-10-18T03:03:10.248Z,18.10
2022-10-18T03:05:39.211Z,15.70
2022-10-18T03:08:09.431Z,18.60
2022-10-18T03:10:39.048Z,18.20
2022-10-18T03:13:08.351Z,15.00
2022-10-18T03:15:37.659Z,21.60
2022-10-18T03:18:06.857Z,14.80
2022-10-18T03:20:36.166Z,25.40
2022-10-18T03:23:06.198Z,18.50
2022-10-18T03:25:35.578Z,18.80
2022-10-18T03:28:04.861Z,18.30
2022-10-18T03:30:34.044Z,17.00
2022-10-18T03:33:02.738Z,13.60
2022-10-18T03:35:32.666Z,17.40
2022-10-18T03:38:01.731Z,20.20
2022-10-18T03:43:00.997Z,21.90
2022-10-18T03:45:31.446Z,25.60
2022-10-18T03:48:00.739Z,30.90
2022-10-18T03:50:30.472Z,25.80
2022-10-18T03:52:59.749Z,25.20
2022-10-18T03:55:28.795Z,22.50
2022-10-18T03:57:59.082Z,22.10
2022-10-18T04:00:28.154Z,19.50
2022-10-18T04:02:56.905Z,22.50
2022-10-18T04:05:28.070Z,26.30
2022-10-18T04:07:57.370Z,25.50
2022-10-18T04:10:26.461Z,20.00
2022-10-18T04:12:55.271Z,17.30
2022-10-18T04:15:25.074Z,28.50
2022-10-18T04:17:53.608Z,22.20
2022-10-18T04:20:22.758Z,24.40
2022-10-18T04:22:52.526Z,24.70
2022-10-18T04:25:23.065Z,24.30
2022-10-18T04:27:53.070Z,39.20
2022-10-18T04:30:22.468Z,92.60
2022-10-18T04:32:51.271Z,20.20
2022-10-18T04:35:24.881Z,32.40
2022-10-18T04:37:54.482Z,32.20
2022-10-18T04:40:23.874Z,26.50
2022-10-18T04:42:53.300Z,16.20
2022-10-18T04:45:21.954Z,19.90
2022-10-18T04:47:52.084Z,17.90
2022-10-18T04:50:21.173Z,18.80
2022-10-18T04:55:24.245Z,19.00
2022-10-18T04:57:53.759Z,19.30
2022-10-18T05:00:22.925Z,20.30
2022-10-18T05:02:58.278Z,16.20
2022-10-18T05:05:49.594Z,19.90
2022-10-18T05:08:17.405Z,19.50
2022-10-18T05:10:45.999Z,24.90
2022-10-18T05:13:14.666Z,23.20
2022-10-18T05:15:43.265Z,23.20
2022-10-18T05:18:11.883Z,22.50
2022-10-18T05:20:40.831Z,19.20
2022-10-18T05:23:11.462Z,18.60
2022-10-18T05:25:41.738Z,18.00
2022-10-18T05:28:34.449Z,20.20
2022-10-18T05:31:08.346Z,23.40
2022-10-18T05:33:37.435Z,19.90
2022-10-18T05:36:06.855Z,17.80
2022-10-18T05:41:06.059Z,26.50
2022-10-18T05:43:35.431Z,22.60
2022-10-18T05:46:07.206Z,24.90
2022-10-18T05:48:38.328Z,18.20
2022-10-18T05:51:07.234Z,25.90
2022-10-18T05:53:37.540Z,25.40
2022-10-18T05:56:08.009Z,26.90
2022-10-18T05:58:37.128Z,29.80
2022-10-18T06:01:07.002Z,33.60
2022-10-18T06:03:35.744Z,22.70
2022-10-18T06:06:07.368Z,20.70
2022-10-18T06:08:36.857Z,16.70
2022-10-18T06:11:10.437Z,19.30
2022-10-18T06:13:50.600Z,24.90
2022-10-18T06:16:21.601Z,23.70
2022-10-18T06:18:55.654Z,25.80
2022-10-18T06:21:25.640Z,28.60
2022-10-18T06:26:24.673Z,26.80
2022-10-18T06:28:53.314Z,26.40
2022-10-18T06:31:22.302Z,28.50
2022-10-18T06:33:51.113Z,19.70
2022-10-18T06:36:24.366Z,19.60
2022-10-18T06:38:56.119Z,13.00
2022-10-18T06:41:24.754Z,11.00
2022-10-18T06:43:57.399Z,10.20
2022-10-18T06:46:26.859Z,11.40
2022-10-18T06:48:55.746Z,12.40
2022-10-18T06:51:24.300Z,11.20
2022-10-18T06:54:06.197Z,11.10
2022-10-18T06:56:41.372Z,11.60
2022-10-18T06:59:10.360Z,12.50
2022-10-18T07:01:40.880Z,13.10
2022-10-18T07:04:09.773Z,11.70
2022-10-18T07:06:38.873Z,14.90
2022-10-18T07:09:07.875Z,14.90
2022-10-18T07:23:58.886Z,10.40
2022-10-18T07:26:31.518Z,9.60
2022-10-18T07:29:06.853Z,11.70
2022-10-18T07:31:36.510Z,9.70
2022-10-18T07:34:06.521Z,9.60
2022-10-18T07:36:35.437Z,9.60
2022-10-18T07:39:04.816Z,10.20
2022-10-18T07:41:34.351Z,9.60
2022-10-18T07:49:01.003Z,9.00
2022-10-18T07:51:32.947Z,9.10
2022-10-18T07:54:01.918Z,8.70
2022-10-18T07:56:30.640Z,8.80
2022-10-18T07:58:59.045Z,8.30
2022-10-18T08:01:27.657Z,9.10
2022-10-18T08:03:56.587Z,9.60
2022-10-18T08:06:25.297Z,9.80
2022-10-18T08:08:54.102Z,8.80
2022-10-18T08:11:25.144Z,9.90
2022-10-18T08:13:55.021Z,10.20
2022-10-18T08:19:01.378Z,10.80
2022-10-18T08:21:29.916Z,10.20
2022-10-18T08:23:58.512Z,11.60
2022-10-18T08:26:27.047Z,8.70
2022-10-18T08:29:10.415Z,10.80
2022-10-18T08:31:44.430Z,9.00
2022-10-18T08:34:17.304Z,7.40
2022-10-18T08:36:48.268Z,7.90
2022-10-18T08:39:16.896Z,7.80
2022-10-18T08:41:51.318Z,7.60
2022-10-18T08:44:32.436Z,7.10
2022-10-18T08:47:11.153Z,8.00
2022-10-18T08:49:51.102Z,8.80
2022-10-18T08:55:24.847Z,9.30
2022-10-18T08:57:53.939Z,7.80
2022-10-18T09:00:25.369Z,8.10
2022-10-18T09:03:15.156Z,9.80
2022-10-18T09:06:10.371Z,8.90
2022-10-18T09:09:24.659Z,9.80
2022-10-18T09:12:26.462Z,7.60
2022-10-18T09:15:07.321Z,9.10
2022-10-18T09:17:47.892Z,10.20
2022-10-18T09:20:24.540Z,7.50
2022-10-18T09:23:20.506Z,8.20
2022-10-18T09:26:01.318Z,7.30
2022-10-18T09:29:00.378Z,9.50
2022-10-18T09:31:35.007Z,9.10
2022-10-18T09:34:12.751Z,7.80
2022-10-18T09:36:42.200Z,8.20
2022-10-18T09:39:22.841Z,7.40
2022-10-18T09:41:58.370Z,8.40
2022-10-18T09:44:37.045Z,6.60
2022-10-18T09:50:24.468Z,8.60
2022-10-18T09:53:18.502Z,8.00
2022-10-18T09:56:10.557Z,7.90
2022-10-18T09:58:48.687Z,7.50
2022-10-18T10:01:22.584Z,11.90
2022-10-18T10:03:52.079Z,8.50
2022-10-18T10:06:34.950Z,9.50
2022-10-18T10:09:17.857Z,9.30
2022-10-18T10:11:51.822Z,8.80
2022-10-18T10:14:27.556Z,7.00
2022-10-18T10:16:57.644Z,6.60
2022-10-18T10:19:38.375Z,8.20
2022-10-18T10:22:11.007Z,7.20
2022-10-18T10:24:54.092Z,7.30
2022-10-18T10:27:31.614Z,6.60
2022-10-18T10:30:07.126Z,6.30
2022-10-18T10:32:48.114Z,5.60
2022-10-18T10:35:55.812Z,9.20
2022-10-18T10:38:29.423Z,7.20
2022-10-18T10:40:58.938Z,6.30
2022-10-18T10:43:38.241Z,5.80
2022-10-18T10:46:14.902Z,6.70
2022-10-18T10:48:48.301Z,8.60
2022-10-18T10:51:29.115Z,7.00
2022-10-18T10:54:16.743Z,6.30
2022-10-18T10:57:03.384Z,9.80
2022-10-18T10:59:42.721Z,9.10
2022-10-18T11:02:14.283Z,9.40
2022-10-18T11:04:42.952Z,9.60
2022-10-18T11:07:29.283Z,12.90
2022-10-18T11:10:10.039Z,13.70
2022-10-18T11:12:48.172Z,10.50
2022-10-18T11:15:32.825Z,9.20
2022-10-18T11:18:01.492Z,12.70
2022-10-18T11:23:17.698Z,12.00
2022-10-18T11:26:00.744Z,12.60
2022-10-18T11:28:51.207Z,11.10
2022-10-18T11:31:40.123Z,11.40
2022-10-18T11:34:37.398Z,12.50
2022-10-18T11:37:29.083Z,11.00
2022-10-18T11:40:02.287Z,13.20
2022-10-18T11:42:36.702Z,10.30
2022-10-18T11:45:11.620Z,9.90
2022-10-18T11:47:55.919Z,8.70
2022-10-18T11:50:52.596Z,8.50
2022-10-18T11:53:30.717Z,10.60
2022-10-18T11:56:28.491Z,9.20
2022-10-18T11:59:29.225Z,10.30
2022-10-18T12:02:23.789Z,9.00
2022-10-18T12:05:21.977Z,8.70
2022-10-18T12:08:18.018Z,9.00
2022-10-18T12:11:04.623Z,10.00
2022-10-18T12:13:45.163Z,8.20
2022-10-18T12:16:14.751Z,7.90
2022-10-18T12:21:25.713Z,9.50
2022-10-18T12:24:11.803Z,8.60
2022-10-18T12:26:40.504Z,8.30
2022-10-18T12:29:30.266Z,8.10
2022-10-18T12:32:31.646Z,9.30
2022-10-18T12:35:07.082Z,6.30
2022-10-18T12:37:50.937Z,6.90
2022-10-18T12:40:48.709Z,7.60
2022-10-18T12:43:36.655Z,6.70
2022-10-18T12:46:13.104Z,6.20
2022-10-18T12:48:48.984Z,7.30
2022-10-18T12:51:22.124Z,14.40
2022-10-18T12:54:02.636Z,8.10
2022-10-18T12:56:31.470Z,8.50
2022-10-18T13:01:53.113Z,6.90
2022-10-18T13:04:27.410Z,6.60
2022-10-18T13:06:58.764Z,6.00
2022-10-18T13:09:37.971Z,4.40
2022-10-18T13:12:09.841Z,4.80
2022-10-18T13:15:25.394Z,3.80
2022-10-18T13:18:31.358Z,4.20
2022-10-18T13:21:14.662Z,4.50
2022-10-18T13:23:50.810Z,3.70
2022-10-18T13:26:34.480Z,4.60
2022-10-18T13:29:54.141Z,5.00
2022-10-18T13:32:47.164Z,4.60
2022-10-18T13:35:54.877Z,3.60
2022-10-18T13:38:47.364Z,4.20
2022-10-18T13:41:28.327Z,5.10
2022-10-18T13:44:37.801Z,5.10
2022-10-18T13:47:07.255Z,4.10
2022-10-18T13:50:03.910Z,4.10
2022-10-18T13:52:47.943Z,5.30
2022-10-18T13:55:36.277Z,4.60
2022-10-18T13:58:10.593Z,5.90
2022-10-18T14:01:00.952Z,9.20
2022-10-18T14:03:56.081Z,6.70
2022-10-18T14:06:30.157Z,7.40
2022-10-18T14:09:26.289Z,6.90
2022-10-18T14:12:17.413Z,6.10
2022-10-18T14:14:54.256Z,6.00
2022-10-18T14:17:45.629Z,6.30
2022-10-18T14:20:15.153Z,6.10
2022-10-18T14:22:52.432Z,6.00
2022-10-18T14:25:21.244Z,6.20
2022-10-18T14:28:02.592Z,7.60
2022-10-18T14:30:31.312Z,7.20
2022-10-18T14:33:00.024Z,8.00
2022-10-18T14:35:33.478Z,6.50
2022-10-18T14:38:03.291Z,5.60
2022-10-18T14:40:34.143Z,6.50
2022-10-18T14:43:10.697Z,6.60
2022-10-18T14:45:40.699Z,6.50
2022-10-18T14:48:22.267Z,6.90
2022-10-18T14:50:59.546Z,7.40
2022-10-18T14:53:34.878Z,10.20
2022-10-18T14:56:04.824Z,7.40
2022-10-18T14:58:36.614Z,9.90
2022-10-18T15:01:05.644Z,8.40
2022-10-18T15:03:36.322Z,9.00
2022-10-18T15:06:06.145Z,8.40
2022-10-18T15:08:40.910Z,7.40
2022-10-18T15:11:14.232Z,7.60
2022-10-18T15:13:56.968Z,7.00
2022-10-18T15:16:30.817Z,7.60
2022-10-18T15:19:21.997Z,7.40
2022-10-18T15:22:08.009Z,7.40
2022-10-18T15:24:42.383Z,9.30
2022-10-18T15:27:26.523Z,8.60
2022-10-18T15:29:55.626Z,9.30
2022-10-18T15:32:31.909Z,9.90
2022-10-18T15:35:10.435Z,10.00
2022-10-18T15:37:44.949Z,9.00
2022-10-18T15:40:34.363Z,9.10
2022-10-18T15:43:06.716Z,11.10
2022-10-18T15:45:38.168Z,12.40
2022-10-18T15:48:06.645Z,12.60
2022-10-18T15:50:52.090Z,13.40
2022-10-18T15:53:21.138Z,12.70
2022-10-18T15:55:55.658Z,13.50
2022-10-18T15:58:44.439Z,12.30
2022-10-18T16:01:22.098Z,12.60
2022-10-18T16:03:52.299Z,14.00
2022-10-18T16:06:20.740Z,15.30
2022-10-18T16:08:52.040Z,22.10
2022-10-18T16:11:24.018Z,39.80
2022-10-18T16:13:56.453Z,45.80
2022-10-18T16:16:29.656Z,50.80
2022-10-18T16:18:58.309Z,115.30
2022-10-18T16:21:39.874Z,87.20
2022-10-18T16:24:08.669Z,44.70
2022-10-18T16:26:38.289Z,34.00
2022-10-18T16:29:06.955Z,29.60
2022-10-18T16:31:35.519Z,36.80
2022-10-18T16:34:04.753Z,78.60
2022-10-18T16:36:34.528Z,67.90
2022-10-18T16:39:09.391Z,56.80
2022-10-18T16:41:38.350Z,40.30
2022-10-18T16:44:06.700Z,47.50
2022-10-18T16:46:35.823Z,45.20
2022-10-18T16:49:05.331Z,37.60
2022-10-18T16:51:34.013Z,35.90
2022-10-18T16:54:02.331Z,34.40
2022-10-18T16:56:32.651Z,36.00
2022-10-18T16:59:02.467Z,31.70
2022-10-18T17:01:30.828Z,28.40
2022-10-18T17:03:59.212Z,24.10
2022-10-18T17:06:29.886Z,29.30
2022-10-18T17:08:58.507Z,37.30
2022-10-18T17:11:28.587Z,41.30
2022-10-18T17:13:57.078Z,30.90
2022-10-18T17:16:32.239Z,21.70
2022-10-18T17:19:04.201Z,21.00
2022-10-18T17:21:33.807Z,18.40
2022-10-18T17:24:03.423Z,23.10
2022-10-18T17:26:32.553Z,22.70
2022-10-18T17:29:06.401Z,76.90
2022-10-18T17:31:35.989Z,90.30
2022-10-18T17:34:04.812Z,49.50
2022-10-18T17:36:33.888Z,38.80
2022-10-18T17:39:02.460Z,37.40
2022-10-18T17:41:30.847Z,44.10
2022-10-18T17:43:59.140Z,31.30
2022-10-18T17:46:28.101Z,37.50
2022-10-18T17:48:56.692Z,38.50
2022-10-18T17:51:24.998Z,40.00
2022-10-18T17:53:54.094Z,34.70
2022-10-18T17:56:22.582Z,26.10
2022-10-18T17:58:51.765Z,22.70
2022-10-18T18:01:23.391Z,23.80
2022-10-18T18:03:58.176Z,25.90
2022-10-18T18:06:34.139Z,26.10
2022-10-18T18:09:14.466Z,27.10
2022-10-18T18:11:44.890Z,23.20
2022-10-18T18:14:13.577Z,22.90
2022-10-18T18:16:47.584Z,27.70
2022-10-18T18:19:19.196Z,24.30
2022-10-18T18:21:48.437Z,26.70
2022-10-18T18:24:18.046Z,25.00
2022-10-18T18:26:46.391Z,24.00
2022-10-18T18:29:14.777Z,18.40
2022-10-18T18:31:44.042Z,26.60
2022-10-18T18:34:14.383Z,21.70
2022-10-18T18:36:44.927Z,25.50
2022-10-18T18:39:22.184Z,24.70
2022-10-18T18:41:53.097Z,22.90
2022-10-18T18:44:22.890Z,27.90
2022-10-18T18:46:51.783Z,21.10
2022-10-18T18:49:20.435Z,19.20
2022-10-18T18:51:48.724Z,23.40
2022-10-18T18:54:19.827Z,24.70
2022-10-18T18:56:52.142Z,21.10
2022-10-18T18:59:24.017Z,20.00
2022-10-18T19:01:52.962Z,28.10
2022-10-18T19:04:21.689Z,25.80
2022-10-18T19:06:50.106Z,27.70
2022-10-18T19:09:20.732Z,32.30
2022-10-18T19:11:52.723Z,27.20
2022-10-18T19:16:59.472Z,29.90
2022-10-18T19:19:30.241Z,24.70
2022-10-18T19:22:01.322Z,27.30
2022-10-18T19:24:30.572Z,28.10
2022-10-18T19:27:02.492Z,28.20
2022-10-18T19:29:33.282Z,25.40
2022-10-18T19:32:04.867Z,27.40
2022-10-18T19:34:34.819Z,25.60
2022-10-18T19:37:03.999Z,25.60
2022-10-18T19:39:35.038Z,28.90
2022-10-18T19:42:09.402Z,28.60
2022-10-18T19:44:38.009Z,27.50
2022-10-18T19:47:09.185Z,26.70
2022-10-18T19:49:39.038Z,26.20
2022-10-18T19:52:07.585Z,29.20
2022-10-18T19:54:36.084Z,26.80
2022-10-18T19:57:04.806Z,27.30
2022-10-18T19:59:34.518Z,25.80
2022-10-18T20:02:04.934Z,26.00
2022-10-18T20:04:35.459Z,27.70
2022-10-18T20:07:04.169Z,24.00
2022-10-18T20:09:32.817Z,26.70
2022-10-18T20:12:01.393Z,25.10
2022-10-18T20:14:30.061Z,27.80
2022-10-18T20:16:58.548Z,28.40
2022-10-18T20:19:27.329Z,27.10
2022-10-18T20:21:57.890Z,24.50
2022-10-18T20:24:26.430Z,30.30
2022-10-18T20:26:54.968Z,33.60
2022-10-18T20:29:25.738Z,31.40
2022-10-18T20:31:55.962Z,28.40
2022-10-18T20:34:26.313Z,26.10
2022-10-18T20:39:24.303Z,28.20
2022-10-18T20:41:52.766Z,28.10
2022-10-18T20:44:22.851Z,27.40
2022-10-18T20:46:51.579Z,31.60
2022-10-18T20:49:20.097Z,29.80
2022-10-18T20:51:49.045Z,25.20
2022-10-18T20:54:18.062Z,29.00
2022-10-18T20:56:46.598Z,28.60
2022-10-18T20:59:15.202Z,27.50
2022-10-18T21:01:43.833Z,24.40
2022-10-18T21:04:12.335Z,28.50
2022-10-18T21:06:43.877Z,34.20
2022-10-18T21:09:18.442Z,37.10
2022-10-18T21:11:51.776Z,35.20
2022-10-18T21:14:22.876Z,31.80
2022-10-18T21:16:53.407Z,32.90
2022-10-18T21:19:29.127Z,26.40
2022-10-18T21:22:01.030Z,41.30
2022-10-18T21:24:31.451Z,40.60
2022-10-18T21:27:00.595Z,39.60
2022-10-18T21:29:31.175Z,38.10
2022-10-18T21:32:01.289Z,31.10
2022-10-18T21:34:31.105Z,29.20
2022-10-18T21:37:00.714Z,28.00
2022-10-18T21:39:30.322Z,33.50
2022-10-18T21:41:59.022Z,40.90
2022-10-18T21:44:27.683Z,37.10
2022-10-18T21:46:57.306Z,35.20
2022-10-18T21:49:31.561Z,41.60
2022-10-18T21:52:03.962Z,40.60
2022-10-18T21:54:33.008Z,40.30
2022-10-18T21:57:02.022Z,31.40
2022-10-18T21:59:30.874Z,27.40
2022-10-18T22:02:01.631Z,36.30
2022-10-18T22:07:05.223Z,29.10
2022-10-18T22:09:34.387Z,31.70
2022-10-18T22:12:03.163Z,31.10
2022-10-18T22:14:32.516Z,33.20
2022-10-18T22:17:01.551Z,33.60
2022-10-18T22:19:30.351Z,29.60
2022-10-18T22:21:59.262Z,34.50
2022-10-18T22:24:28.111Z,29.30
2022-10-18T22:26:58.161Z,27.90
2022-10-18T22:29:27.213Z,41.30
2022-10-18T22:31:56.493Z,29.60
2022-10-18T22:34:28.082Z,25.50
2022-10-18T22:36:57.405Z,28.20
2022-10-18T22:39:27.256Z,31.10
2022-10-18T22:41:57.817Z,31.70
2022-10-18T22:44:27.193Z,34.50
2022-10-18T22:46:56.314Z,36.20
2022-10-18T22:49:25.697Z,39.00
2022-10-18T22:51:54.928Z,40.00
2022-10-18T22:54:23.645Z,36.40
2022-10-18T22:56:52.741Z,33.20
2022-10-18T22:59:21.782Z,32.80
2022-10-18T23:01:50.683Z,37.00
2022-10-18T23:04:20.477Z,35.00
2022-10-18T23:06:49.816Z,29.60
2022-10-18T23:09:19.989Z,35.40
2022-10-18T23:11:51.982Z,31.10
2022-10-18T23:14:21.681Z,36.30
2022-10-18T23:16:51.458Z,33.90
2022-10-18T23:19:20.832Z,29.00
2022-10-18T23:21:50.562Z,27.00
2022-10-18T23:24:21.214Z,32.90
2022-10-18T23:29:19.835Z,26.20
2022-10-18T23:31:49.141Z,28.00
2022-10-18T23:34:18.215Z,29.80
2022-10-18T23:36:48.049Z,33.40
2022-10-18T23:39:19.763Z,36.20
2022-10-18T23:41:51.987Z,33.20
2022-10-18T23:44:23.228Z,28.80
2022-10-18T23:46:53.587Z,27.90
2022-10-18T23:49:23.863Z,28.20
2022-10-18T23:51:54.450Z,30.30
2022-10-18T23:54:24.045Z,28.80
2022-10-18T23:56:53.358Z,33.00
2022-10-18T23:59:22.685Z,30.50
